Time;durP1;ratioP1;P1;durP2;ratioP2;P2;SDS_P1;SDS_P2;PMS_P1;PMS_P2;Temp;Humidity;BMP_temperature;BMP_pressure;BME280_temperature;BME280_humidity;BME280_pressure;Samples;Min_cycle;Max_cycle;Signal;HPM_P1;HPM_P2
2022/01/09 00:00:54;;;;;;;45.70;6.47;;;;;;;-142.75;100.00;76093.94;5027670;28;20112;-68
2022/01/09 00:03:19;;;;;;;39.92;5.95;;;;;;;-142.75;100.00;76101.81;5010323;28;20375;-68
2022/01/09 00:05:45;;;;;;;30.43;4.87;;;;;;;-142.75;100.00;76097.88;5011790;28;20534;-68
2022/01/09 00:08:10;;;;;;;36.00;5.32;;;;;;;-142.75;100.00;76090.00;5043634;28;20267;-68
2022/01/09 00:10:36;;;;;;;36.45;5.75;;;;;;;-142.75;100.00;76109.69;5029257;28;20104;-68
2022/01/09 00:13:02;;;;;;;37.10;5.03;;;;;;;-142.75;100.00;76097.88;5011588;28;20036;-68
2022/01/09 00:15:27;;;;;;;;;;;;;;;-142.75;100.00;76107.72;5029543;28;20429;-68
2022/01/09 00:17:52;;;;;;;33.93;5.07;;;;;;;-142.75;100.00;76105.75;5028777;28;19917;-68
2022/01/09 00:20:18;;;;;;;37.53;5.22;;;;;;;-142.75;100.00;76103.78;5028899;28;20035;-68
2022/01/09 00:22:51;;;;;;;37.80;5.28;;;;;;;-142.75;100.00;76109.69;5021683;28;20032;-69
2022/01/09 00:25:20;;;;;;;41.60;5.50;;;;;;;-142.75;100.00;76101.81;5029248;28;20029;-69
2022/01/09 00:27:48;;;;;;;38.90;5.97;;;;;;;-142.75;100.00;76107.72;5029162;28;20025;-68
2022/01/09 00:30:16;;;;;;;37.87;5.10;;;;;;;-142.75;100.00;76109.69;5034712;28;20147;-68
2022/01/09 00:32:41;;;;;;;38.13;5.97;;;;;;;-142.75;100.00;76115.59;5048677;28;20088;-68
2022/01/09 00:35:08;;;;;;;37.42;6.03;;;;;;;-142.75;100.00;76111.66;5030899;28;20037;-68
2022/01/09 00:37:34;;;;;;;45.33;6.03;;;;;;;-142.75;100.00;76113.63;5030153;28;20032;-68
2022/01/09 00:39:59;;;;;;;36.53;6.35;;;;;;;-142.75;100.00;76121.50;5012363;28;20025;-68
2022/01/09 00:42:25;;;;;;;39.97;5.47;;;;;;;-142.75;100.00;76127.41;5030241;28;20021;-68
2022/01/09 00:44:50;;;;;;;49.50;5.70;;;;;;;-142.75;100.00;76123.47;5030258;28;20104;-68
2022/01/09 00:47:16;;;;;;;31.17;4.70;;;;;;;-142.75;100.00;76123.47;5028788;28;20093;-68
2022/01/09 00:49:41;;;;;;;32.42;5.15;;;;;;;-142.75;100.00;76133.31;5029115;28;20486;-66
2022/01/09 00:52:07;;;;;;;49.65;6.07;;;;;;;-142.75;100.00;76129.38;5030030;28;20450;-67
2022/01/09 00:54:32;;;;;;;31.40;4.80;;;;;;;-142.75;100.00;76125.44;5031093;28;20072;-67
2022/01/09 00:56:57;;;;;;;42.78;6.13;;;;;;;-142.75;100.00;76125.44;5015902;28;20037;-68
2022/01/09 00:59:23;;;;;;;28.97;5.17;;;;;;;-142.75;100.00;76137.25;5033414;28;20029;-67
2022/01/09 01:01:48;;;;;;;34.90;5.73;;;;;;;-142.75;100.00;76139.22;5033418;28;20276;-67
2022/01/09 01:04:13;;;;;;;37.72;5.60;;;;;;;-142.75;100.00;76153.00;5033167;28;20346;-69
2022/01/09 01:06:39;;;;;;;39.95;5.15;;;;;;;-142.75;100.00;76151.03;5033351;28;20036;-68
2022/01/09 01:09:04;;;;;;;39.55;6.05;;;;;;;-142.75;100.00;76154.97;5032936;28;20035;-68
2022/01/09 01:11:30;;;;;;;30.20;4.68;;;;;;;-142.75;100.00;76156.94;5033206;28;20445;-68
2022/01/09 01:13:55;;;;;;;31.08;5.53;;;;;;;-142.75;100.00;76156.94;5015300;28;20029;-68
2022/01/09 01:16:20;;;;;;;47.38;6.03;;;;;;;-142.75;100.00;76145.13;5045252;28;20368;-68
2022/01/09 01:18:46;;;;;;;32.90;4.60;;;;;;;-142.75;100.00;76162.84;5032860;28;20021;-68
2022/01/09 01:21:12;;;;;;;27.00;5.00;;;;;;;-142.75;100.00;76176.63;5033116;28;20056;-68
2022/01/09 01:23:38;;;;;;;29.43;5.13;;;;;;;-142.75;100.00;76180.56;5032902;28;20025;-68
2022/01/09 01:26:03;;;;;;;31.00;5.82;;;;;;;-142.75;100.00;76188.44;5055351;22;20170;-66
2022/01/09 01:28:30;;;;;;;35.00;6.05;;;;;;;-142.75;100.00;76186.47;5011268;28;20376;-67
2022/01/09 01:30:55;;;;;;;34.03;4.70;;;;;;;-142.75;100.00;76190.41;5014200;28;20028;-67
2022/01/09 01:33:21;;;;;;;36.40;5.07;;;;;;;-142.75;100.00;76204.16;5032884;28;20025;-67
2022/01/09 01:35:47;;;;;;;30.92;4.72;;;;;;;-142.75;100.00;76186.47;5032888;28;20036;-67
2022/01/09 01:38:12;;;;;;;28.77;5.78;;;;;;;-142.75;100.00;76204.16;5014806;28;20037;-68
2022/01/09 01:40:37;;;;;;;24.10;4.20;;;;;;;-142.75;100.00;76221.88;5032794;28;20112;-67
2022/01/09 01:43:03;;;;;;;31.05;4.80;;;;;;;-142.75;100.00;76214.00;5032461;28;20372;-67
2022/01/09 01:45:28;;;;;;;29.42;4.55;;;;;;;-142.75;100.00;76210.06;5015006;28;20048;-66
2022/01/09 01:47:54;;;;;;;36.63;4.47;;;;;;;-142.75;100.00;76215.97;5014611;28;20529;-66
2022/01/09 01:50:19;;;;;;;26.25;4.78;;;;;;;-142.75;100.00;76231.72;5032727;28;20021;-67
2022/01/09 01:52:50;;;;;;;21.55;3.95;;;;;;;-142.75;100.00;76239.59;5014857;28;20032;-67
2022/01/09 01:55:16;;;;;;;30.57;4.10;;;;;;;-142.75;100.00;76247.47;5014815;28;20526;-67
2022/01/09 01:57:42;;;;;;;;;;;;;;;-142.75;100.00;76251.41;5032802;28;20030;-67
2022/01/09 02:00:11;;;;;;;22.77;3.60;;;;;;;-142.75;100.00;76259.28;5014464;28;19913;-67
2022/01/09 02:02:36;;;;;;;29.50;4.97;;;;;;;-142.75;100.00;76261.25;5032441;28;20033;-67
2022/01/09 02:05:05;;;;;;;31.08;4.40;;;;;;;-142.75;100.00;76263.22;5032195;28;20079;-67
2022/01/09 02:07:30;;;;;;;28.43;4.73;;;;;;;-142.75;100.00;76269.13;5013540;28;20108;-67
2022/01/09 02:09:55;;;;;;;33.47;4.40;;;;;;;-142.75;100.00;76277.00;5014314;28;20116;-67
2022/01/09 02:12:21;;;;;;;27.83;3.75;;;;;;;-142.75;100.00;76278.97;5032320;28;20037;-67
2022/01/09 02:14:47;;;;;;;23.07;4.10;;;;;;;-142.75;100.00;76282.91;5032231;28;20022;-67
2022/01/09 02:17:20;;;;;;;20.33;3.03;;;;;;;-142.75;100.00;76284.88;5032038;28;20292;-67
2022/01/09 02:20:04;;;;;;;29.13;4.10;;;;;;;-142.75;100.00;76294.72;5031594;28;20033;-67
2022/01/09 02:22:33;;;;;;;34.00;4.23;;;;;;;-142.75;100.00;76306.53;5032059;28;20545;-67
2022/01/09 02:24:58;;;;;;;22.43;3.87;;;;;;;-142.75;100.00;76314.41;5031980;28;20099;-67
2022/01/09 02:27:24;;;;;;;28.73;3.50;;;;;;;-142.75;100.00;76314.41;5031875;28;20017;-67
2022/01/09 02:29:49;;;;;;;14.55;2.65;;;;;;;-142.75;100.00;76318.34;5031944;28;20041;-67
2022/01/09 02:32:18;;;;;;;22.37;3.77;;;;;;;-142.75;100.00;76326.22;5032179;28;20017;-67
2022/01/09 02:34:47;;;;;;;18.43;3.10;;;;;;;-142.75;100.00;76330.16;5014093;28;20274;-67
2022/01/09 02:37:13;;;;;;;20.97;3.00;;;;;;;-142.75;100.00;76340.00;5031674;28;20091;-67
2022/01/09 02:39:38;;;;;;;26.08;3.92;;;;;;;-142.75;100.00;76343.94;5013711;28;20049;-67
2022/01/09 02:42:04;;;;;;;27.17;3.58;;;;;;;-142.75;100.00;76353.78;5031711;28;20483;-67
2022/01/09 02:44:29;;;;;;;34.67;4.28;;;;;;;-142.75;100.00;76355.72;5031329;28;20086;-67
2022/01/09 02:49:20;;;;;;;22.80;3.93;;;;;;;-142.75;100.00;76367.53;5031382;28;20562;-67
2022/01/09 02:51:46;;;;;;;20.05;3.55;;;;;;;-142.75;100.00;76373.44;5031580;28;20272;-67
2022/01/09 02:56:56;;;;;;;25.53;3.10;;;;;;;-142.75;100.00;76369.50;5030305;28;20120;-66
2022/01/09 02:59:21;;;;;;;16.20;2.83;;;;;;;-142.75;100.00;76389.19;5013517;28;20492;-67
2022/01/09 03:01:47;;;;;;;19.83;2.67;;;;;;;-142.75;100.00;76391.16;5013734;28;20033;-66
2022/01/09 03:04:12;;;;;;;29.35;3.47;;;;;;;-142.75;100.00;76393.13;5031289;28;20159;-67
2022/01/09 03:06:37;;;;;;;19.25;3.05;;;;;;;-142.75;100.00;76401.00;5031181;28;20029;-66
2022/01/09 03:09:06;;;;;;;29.23;3.28;;;;;;;-142.75;100.00;76404.94;5030881;28;20052;-67
2022/01/09 03:11:32;;;;;;;26.03;3.83;;;;;;;-142.75;100.00;76412.81;5041388;28;20063;-67
2022/01/09 03:13:57;;;;;;;18.00;3.40;;;;;;;-142.75;100.00;76420.69;5051078;28;20041;-67
2022/01/09 03:16:23;;;;;;;16.05;2.58;;;;;;;-142.75;100.00;76424.63;5033016;28;20021;-67
2022/01/09 03:18:48;;;;;;;24.70;3.03;;;;;;;-142.75;100.00;76434.47;5050387;28;20017;-67
2022/01/09 03:21:13;;;;;;;20.67;3.47;;;;;;;-142.75;100.00;76452.19;5050891;28;20776;-67
2022/01/09 03:23:38;;;;;;;21.40;3.47;;;;;;;-142.75;100.00;76452.19;5033064;28;20354;-67
2022/01/09 03:26:07;;;;;;;14.13;2.50;;;;;;;-142.75;100.00;76460.06;5050669;28;20298;-67
2022/01/09 03:28:32;;;;;;;13.43;2.70;;;;;;;-142.75;100.00;76465.97;5032753;28;20017;-66
2022/01/09 03:30:58;;;;;;;20.77;2.50;;;;;;;-142.75;100.00;76473.84;5032903;28;20371;-67
2022/01/09 03:33:23;;;;;;;11.93;1.95;;;;;;;-142.75;100.00;76475.81;5050804;28;20032;-67
2022/01/09 03:35:48;;;;;;;14.07;2.27;;;;;;;-142.75;100.00;76479.75;5032887;28;20048;-67
2022/01/09 03:38:13;;;;;;;15.30;2.87;;;;;;;-142.75;100.00;76483.69;5032376;28;20287;-67
2022/01/09 03:40:39;;;;;;;18.20;2.57;;;;;;;-142.75;100.00;76487.63;5050794;28;20740;-67
2022/01/09 03:43:04;;;;;;;19.58;2.65;;;;;;;-142.75;100.00;76489.59;5032419;28;20025;-68
2022/01/09 03:45:30;;;;;;;10.90;2.03;;;;;;;-142.75;100.00;76491.56;5050671;28;20070;-67
2022/01/09 03:47:56;;;;;;;12.85;2.35;;;;;;;-142.75;100.00;76495.50;5032400;28;20268;-66
2022/01/09 03:50:22;;;;;;;13.57;2.30;;;;;;;-142.75;100.00;76495.50;5050559;28;20068;-67
2022/01/09 03:52:49;;;;;;;18.90;2.78;;;;;;;-142.75;100.00;76503.38;5050362;28;20040;-67
2022/01/09 03:55:17;;;;;;;17.23;3.27;;;;;;;-142.75;100.00;76511.25;5050538;28;20158;-67
2022/01/09 03:57:43;;;;;;;10.83;2.13;;;;;;;-142.75;100.00;76513.22;5050321;28;20041;-67
2022/01/09 04:00:12;;;;;;;16.27;2.40;;;;;;;-142.75;100.00;76503.38;5050353;28;20039;-67
2022/01/09 04:02:38;;;;;;;20.90;2.40;;;;;;;-142.75;100.00;76523.06;5050508;28;20028;-67
2022/01/09 04:05:03;;;;;;;12.73;2.78;;;;;;;-142.75;100.00;76530.91;5050327;28;20498;-67
2022/01/09 04:07:29;;;;;;;14.82;2.40;;;;;;;-142.75;100.00;76530.91;5050308;28;20025;-67
2022/01/09 04:09:55;;;;;;;13.80;2.63;;;;;;;-142.75;100.00;76534.84;5050163;28;20379;-66
2022/01/09 04:12:32;;;;;;;15.10;2.47;;;;;;;-142.75;100.00;76530.91;5050441;28;20429;-67
2022/01/09 04:15:00;;;;;;;15.30;2.33;;;;;;;-142.75;100.00;76536.84;5032592;28;20062;-66
2022/01/09 04:17:39;;;;;;;9.93;1.87;;;;;;;-142.75;100.00;76542.72;5050175;28;20024;-67
2022/01/09 04:20:07;;;;;;;11.70;2.10;;;;;;;-142.75;100.00;76556.50;5050038;28;20054;-67
2022/01/09 04:22:32;;;;;;;15.77;2.30;;;;;;;-142.75;100.00;76554.53;5050091;28;20482;-67
2022/01/09 04:24:57;;;;;;;14.77;3.63;;;;;;;-142.75;100.00;76570.28;5050314;28;20024;-67
2022/01/09 04:27:22;;;;;;;9.48;1.80;;;;;;;-142.75;100.00;76574.22;5050039;28;20333;-67
2022/01/09 04:29:48;;;;;;;14.10;3.10;;;;;;;-142.75;100.00;76574.22;5051537;28;20028;-67
2022/01/09 04:32:13;;;;;;;14.35;2.33;;;;;;;-142.75;100.00;76584.06;5054070;28;20033;-66
2022/01/09 04:34:38;;;;;;;15.45;2.05;;;;;;;-142.75;100.00;76591.94;5036096;28;20028;-67
2022/01/09 04:37:04;;;;;;;11.60;2.00;;;;;;;-142.75;100.00;76597.84;5053844;28;20025;-67
2022/01/09 04:39:29;;;;;;;12.33;2.17;;;;;;;-142.75;100.00;76605.72;5035683;28;20643;-67
2022/01/09 04:41:55;;;;;;;17.58;2.42;;;;;;;-142.75;100.00;76611.63;5053863;28;20272;-67
2022/01/09 04:44:21;;;;;;;16.02;2.30;;;;;;;-142.75;100.00;76607.69;5035609;28;20071;-67
2022/01/09 04:46:54;;;;;;;11.27;2.80;;;;;;;-142.75;100.00;76617.53;5053853;28;20379;-67
2022/01/09 04:49:23;;;;;;;16.10;2.53;;;;;;;-142.75;100.00;76619.50;5053487;28;20025;-67
2022/01/09 04:51:48;;;;;;;16.43;2.43;;;;;;;-142.75;100.00;76623.44;5053764;28;20025;-67
2022/01/09 04:54:14;;;;;;;14.63;2.45;;;;;;;-142.75;100.00;76621.47;5053686;28;20040;-67
2022/01/09 04:56:39;;;;;;;17.30;2.20;;;;;;;-142.75;100.00;76631.31;5053457;28;20024;-67
2022/01/09 04:59:05;;;;;;;12.40;2.22;;;;;;;-142.75;100.00;76637.22;5035467;28;20780;-67
2022/01/09 05:01:30;;;;;;;13.82;2.58;;;;;;;-142.75;100.00;76637.22;5053584;28;20537;-67
2022/01/09 05:03:55;;;;;;;18.30;2.73;;;;;;;-142.75;100.00;76635.25;5043036;28;20029;-67
2022/01/09 05:06:21;;;;;;;11.80;2.50;;;;;;;-142.75;100.00;76643.13;5037620;28;20354;-67
2022/01/09 05:08:47;;;;;;;11.95;2.05;;;;;;;-142.75;100.00;76654.94;5053178;28;20021;-67
2022/01/09 05:11:12;;;;;;;15.13;2.55;;;;;;;-142.75;100.00;76652.97;5035651;28;20409;-67
2022/01/09 05:13:37;;;;;;;15.30;2.25;;;;;;;-142.75;100.00;76668.72;5035619;28;20029;-67
2022/01/09 05:16:03;;;;;;;16.52;2.10;;;;;;;-142.75;100.00;76672.66;5035478;28;20464;-67
2022/01/09 05:18:28;;;;;;;13.57;2.30;;;;;;;-142.75;100.00;76664.78;5035070;28;20032;-66
2022/01/09 05:20:53;;;;;;;25.25;3.70;;;;;;;-142.75;100.00;76664.78;5053158;28;20028;-67
2022/01/09 05:23:19;;;;;;;10.32;2.35;;;;;;;-142.75;100.00;76672.66;5053139;28;20030;-66
2022/01/09 05:25:44;;;;;;;15.73;2.25;;;;;;;-142.75;100.00;76668.72;5053150;28;20020;-67
2022/01/09 05:28:10;;;;;;;18.05;2.22;;;;;;;-142.75;100.00;76678.56;5045741;28;20047;-67
2022/01/09 05:30:35;;;;;;;13.45;3.20;;;;;;;-142.75;100.00;76674.63;5037730;28;20628;-67
2022/01/09 05:33:00;;;;;;;13.68;2.75;;;;;;;-142.75;100.00;76672.66;5052986;28;20055;-67
2022/01/09 05:35:26;;;;;;;9.32;2.08;;;;;;;-142.75;100.00;76668.72;5052764;28;20031;-66
2022/01/09 05:37:52;;;;;;;10.75;2.08;;;;;;;-142.75;100.00;76668.72;5052526;28;20170;-65
2022/01/09 05:40:19;;;;;;;18.08;3.22;;;;;;;-142.75;100.00;76664.78;5052602;28;20075;-67
2022/01/09 05:42:44;;;;;;;14.97;2.23;;;;;;;-142.75;100.00;76666.75;5052518;28;20032;-67
2022/01/09 05:45:10;;;;;;;9.57;2.10;;;;;;;-142.75;100.00;76672.66;5052700;28;20397;-67
2022/01/09 05:47:36;;;;;;;11.60;2.70;;;;;;;-142.75;100.00;76672.66;5052638;28;20017;-67
2022/01/09 05:50:01;;;;;;;13.35;2.33;;;;;;;-142.75;100.00;76670.69;5034416;28;20509;-67
2022/01/09 05:52:26;;;;;;;13.30;2.60;;;;;;;-142.75;100.00;76672.66;5052704;28;20055;-67
2022/01/09 05:54:52;;;;;;;13.05;2.42;;;;;;;-142.75;100.00;76684.47;5052580;28;20090;-67
2022/01/09 05:57:17;;;;;;;12.40;2.50;;;;;;;-142.75;100.00;76690.38;5052526;28;20031;-67
2022/01/09 05:59:42;;;;;;;14.88;2.72;;;;;;;-142.75;100.00;76688.41;5052171;28;20814;-67
2022/01/09 06:02:07;;;;;;;15.43;2.33;;;;;;;-142.75;100.00;76694.31;5052370;28;20059;-67
2022/01/09 06:04:33;;;;;;;17.05;2.78;;;;;;;-142.75;100.00;76692.34;5052424;28;20029;-66
2022/01/09 06:06:58;;;;;;;14.95;2.40;;;;;;;-142.75;100.00;76700.22;5052199;28;20029;-67
2022/01/09 06:09:23;;;;;;;15.07;2.13;;;;;;;-142.75;100.00;76706.13;5051942;28;20028;-67
2022/01/09 06:11:49;;;;;;;12.50;2.35;;;;;;;-142.75;100.00;76704.16;5052287;28;20021;-67
2022/01/09 06:14:14;;;;;;;10.43;2.22;;;;;;;-142.75;100.00;76706.13;5052233;28;20100;-67
2022/01/09 06:16:39;;;;;;;12.48;2.00;;;;;;;-142.75;100.00;76717.94;5051971;28;20036;-66
2022/01/09 06:19:05;;;;;;;12.73;2.93;;;;;;;-142.75;100.00;76721.88;5051739;28;20498;-67
2022/01/09 06:21:30;;;;;;;9.98;2.17;;;;;;;-142.75;100.00;76731.72;5052065;28;20021;-67
2022/01/09 06:23:55;;;;;;;14.20;3.03;;;;;;;-142.75;100.00;76749.44;5034064;28;20063;-66
2022/01/09 06:26:21;;;;;;;14.13;2.50;;;;;;;-142.75;100.00;76763.22;5051837;28;20029;-67
2022/01/09 06:28:47;;;;;;;14.10;2.13;;;;;;;-142.75;100.00;76782.91;5051666;28;20458;-67
2022/01/09 06:31:12;;;;;;;13.27;2.25;;;;;;;-142.75;100.00;76808.50;5028044;28;20497;-67
2022/01/09 06:33:37;;;;;;;7.47;1.67;;;;;;;-142.75;100.00;76824.22;5031858;28;20021;-67
2022/01/09 06:36:03;;;;;;;9.75;2.67;;;;;;;-142.75;100.00;76830.13;5031802;28;20028;-67
2022/01/09 06:38:29;;;;;;;16.73;2.72;;;;;;;-142.75;100.00;76828.16;5031435;28;20029;-67
2022/01/09 06:40:54;;;;;;;15.45;2.53;;;;;;;-142.75;100.00;76828.16;5031759;28;20060;-67
2022/01/09 06:43:19;;;;;;;10.73;2.50;;;;;;;-142.75;100.00;76834.06;5013779;28;20022;-67
2022/01/09 06:45:44;;;;;;;13.52;2.40;;;;;;;-142.75;100.00;76836.03;5031865;28;20029;-67
2022/01/09 06:48:10;;;;;;;18.35;2.72;;;;;;;-142.75;100.00;76838.00;5050937;28;20020;-67
2022/01/09 06:50:35;;;;;;;14.15;2.30;;;;;;;-142.75;100.00;76845.88;5051511;28;20490;-67
2022/01/09 06:53:00;;;;;;;18.77;2.80;;;;;;;-142.75;100.00;76834.06;5046464;28;20471;-66
2022/01/09 06:55:26;;;;;;;13.73;2.50;;;;;;;-142.75;100.00;76849.81;5031569;28;20021;-67
2022/01/09 06:57:53;;;;;;;17.38;3.10;;;;;;;-142.75;100.00;76855.72;5031039;28;20029;-65
2022/01/09 07:00:19;;;;;;;13.23;2.43;;;;;;;-142.75;100.00;76877.38;5031501;28;20108;-67
2022/01/09 07:02:45;;;;;;;8.25;1.80;;;;;;;-142.75;100.00;76879.34;5031350;28;20100;-67
2022/01/09 07:05:10;;;;;;;9.05;2.10;;;;;;;-142.75;100.00;76883.28;5031313;28;20029;-67
2022/01/09 07:07:36;;;;;;;14.43;2.60;;;;;;;-142.75;100.00;76875.41;5031168;28;20505;-66
2022/01/09 07:10:02;;;;;;;14.13;2.13;;;;;;;-142.75;100.00;76871.47;5015363;28;20087;-66
2022/01/09 07:12:27;;;;;;;;;;;;;;;-142.75;100.00;76865.56;5051583;28;20036;-66
2022/01/09 07:14:52;;;;;;;14.57;2.67;;;;;;;-142.75;100.00;76865.56;5051012;28;19913;-66
2022/01/09 07:17:18;;;;;;;11.50;2.88;;;;;;;-142.75;100.00;76863.59;5033067;28;20025;-67
2022/01/09 07:19:43;;;;;;;15.63;3.10;;;;;;;-142.75;100.00;76865.56;5050730;28;20021;-67
2022/01/09 07:22:08;;;;;;;14.52;2.70;;;;;;;-142.75;100.00;76873.44;5050946;28;20119;-66
2022/01/09 07:24:34;;;;;;;14.30;2.78;;;;;;;-142.75;100.00;76865.56;5033044;28;20025;-67
2022/01/09 07:27:00;;;;;;;12.00;2.33;;;;;;;-142.75;100.00;76865.56;5065435;22;20045;-66
2022/01/09 07:29:25;;;;;;;16.60;3.13;;;;;;;-142.75;100.00;76857.69;5028930;28;20090;-67
2022/01/09 07:31:51;;;;;;;11.38;2.25;;;;;;;-142.75;100.00;76865.56;5030379;28;20033;-67
2022/01/09 07:34:18;;;;;;;19.15;2.75;;;;;;;-142.75;100.00;76863.59;5030956;28;20033;-67
2022/01/09 07:36:43;;;;;;;15.87;2.67;;;;;;;-142.75;100.00;76857.69;5013106;28;20486;-67
2022/01/09 07:39:08;;;;;;;16.60;3.08;;;;;;;-142.75;100.00;76853.75;5030590;28;20048;-67
2022/01/09 07:41:33;;;;;;;17.23;2.70;;;;;;;-142.75;100.00;76861.63;5030816;28;20071;-67
2022/01/09 07:43:59;;;;;;;8.87;2.60;;;;;;;-142.75;100.00;76859.66;5030524;28;20777;-67
2022/01/09 07:46:24;;;;;;;14.23;2.70;;;;;;;-142.75;100.00;76859.66;5030552;28;20347;-67
2022/01/09 07:48:49;;;;;;;12.53;2.70;;;;;;;-142.75;100.00;76861.63;5030396;28;20276;-67
2022/01/09 07:51:15;;;;;;;12.00;2.42;;;;;;;-142.75;100.00;76861.63;5030693;28;20292;-67
2022/01/09 07:53:40;;;;;;;18.57;2.60;;;;;;;-142.75;100.00;76865.56;5030560;28;20039;-67
2022/01/09 07:56:05;;;;;;;12.90;2.77;;;;;;;-142.75;100.00;76861.63;5030694;28;20777;-66
2022/01/09 07:58:31;;;;;;;12.38;2.60;;;;;;;-142.75;100.00;76859.66;5030163;28;20028;-67
2022/01/09 08:00:57;;;;;;;11.68;2.53;;;;;;;-142.75;100.00;76857.69;5030584;28;20034;-68
2022/01/09 08:03:22;;;;;;;14.35;3.15;;;;;;;-142.75;100.00;76867.53;5030559;28;20100;-67
2022/01/09 08:05:47;;;;;;;10.10;2.17;;;;;;;-142.75;100.00;76873.44;5034033;28;20021;-67
2022/01/09 08:08:13;;;;;;;13.18;2.17;;;;;;;-142.75;100.00;76875.41;5034378;28;20502;-67
2022/01/09 08:10:38;;;;;;;11.43;2.23;;;;;;;-142.75;100.00;76881.31;5034548;28;20422;-67
2022/01/09 08:13:03;;;;;;;9.80;1.93;;;;;;;-142.75;100.00;76869.50;5034571;28;20017;-67
2022/01/09 08:15:28;;;;;;;16.20;2.87;;;;;;;-142.75;100.00;76873.44;5034457;28;20771;-67
2022/01/09 08:17:54;;;;;;;17.80;2.53;;;;;;;-142.75;100.00;76867.53;5033963;28;20294;-66
2022/01/09 08:20:20;;;;;;;17.52;2.55;;;;;;;-142.75;100.00;76871.47;5016620;28;20025;-67
2022/01/09 08:22:45;;;;;;;;;;;;;;;-142.75;100.00;76873.44;5034891;28;20402;-67
2022/01/09 08:25:16;;;;;;;12.73;1.93;;;;;;;-142.75;100.00;76877.38;5034199;28;19921;-69
2022/01/09 08:27:43;;;;;;;12.20;2.57;;;;;;;-142.75;100.00;76871.47;5016270;28;20025;-67
2022/01/09 08:30:09;;;;;;;17.00;2.73;;;;;;;-142.75;100.00;76873.44;5033971;28;20029;-68
2022/01/09 08:32:35;;;;;;;13.97;3.07;;;;;;;-142.75;100.00;76863.59;5034025;28;20033;-67
2022/01/09 08:35:02;;;;;;;9.75;1.75;;;;;;;-142.75;100.00;76861.63;5034259;28;20087;-67
2022/01/09 08:37:27;;;;;;;13.30;2.30;;;;;;;-142.75;100.00;76869.50;5033846;28;20083;-67
2022/01/09 08:39:53;;;;;;;18.90;2.63;;;;;;;-142.75;100.00;76875.41;5033893;28;20022;-67
2022/01/09 08:42:18;;;;;;;18.00;2.90;;;;;;;-142.75;100.00;76873.44;5033558;28;20113;-67
2022/01/09 08:44:43;;;;;;;11.95;2.08;;;;;;;-142.75;100.00;76881.31;5034002;28;20025;-68
2022/01/09 08:47:09;;;;;;;16.70;2.53;;;;;;;-142.75;100.00;76875.41;5034094;28;20502;-67
2022/01/09 08:49:35;;;;;;;15.55;3.13;;;;;;;-142.75;100.00;76887.22;5033702;28;20290;-68
2022/01/09 08:52:00;;;;;;;11.55;1.90;;;;;;;-142.75;100.00;76901.00;5033919;28;20025;-67
2022/01/09 08:54:26;;;;;;;15.30;3.38;;;;;;;-142.75;100.00;76904.94;5033839;28;20017;-67
2022/01/09 08:56:51;;;;;;;19.08;2.35;;;;;;;-142.75;100.00;76908.88;5033569;28;20099;-67
2022/01/09 08:59:17;;;;;;;17.52;2.15;;;;;;;-142.75;100.00;76906.91;5033431;28;20474;-67
2022/01/09 09:01:43;;;;;;;19.77;2.30;;;;;;;-142.75;100.00;76910.84;5033751;28;20029;-67
2022/01/09 09:04:08;;;;;;;12.35;2.42;;;;;;;-142.75;100.00;76885.25;5033658;28;20030;-67
2022/01/09 09:06:33;;;;;;;11.40;2.80;;;;;;;-142.75;100.00;76875.41;5031039;28;20079;-67
2022/01/09 09:08:59;;;;;;;12.15;3.05;;;;;;;-142.75;100.00;76861.63;5015535;28;20021;-67
2022/01/09 09:11:24;;;;;;;15.20;3.00;;;;;;;-142.75;100.00;76861.63;5033283;28;20040;-67
2022/01/09 09:13:49;;;;;;;15.98;2.20;;;;;;;-142.75;100.00;76859.66;5015746;28;20323;-68
2022/01/09 09:16:15;;;;;;;16.88;2.53;;;;;;;-142.75;100.00;76847.84;5032737;28;20034;-68
2022/01/09 09:18:41;;;;;;;19.20;2.28;;;;;;;-142.75;100.00;76851.78;5015254;28;20052;-67
2022/01/09 09:21:07;;;;;;;11.10;2.30;;;;;;;-142.75;100.00;76847.84;5033318;28;20022;-67
2022/01/09 09:23:32;;;;;;;16.33;2.70;;;;;;;-142.75;100.00;76859.66;5033346;28;20562;-67
2022/01/09 09:25:57;;;;;;;12.57;2.58;;;;;;;-142.75;100.00;76857.69;5033153;28;20025;-67
2022/01/09 09:28:23;;;;;;;20.92;2.53;;;;;;;-142.75;100.00;76863.59;5032810;28;20029;-68
2022/01/09 09:30:48;;;;;;;13.23;2.33;;;;;;;-142.75;100.00;76865.56;5033032;28;20021;-67
2022/01/09 09:33:13;;;;;;;17.58;2.80;;;;;;;-142.75;100.00;76881.31;5032984;28;20478;-68
2022/01/09 09:35:39;;;;;;;17.52;2.30;;;;;;;-142.75;100.00;76881.31;5032991;28;20033;-68
2022/01/09 09:38:05;;;;;;;17.15;2.72;;;;;;;-142.75;100.00;76893.13;5032397;28;20076;-68
2022/01/09 09:40:30;;;;;;;13.75;2.65;;;;;;;-142.75;100.00;76897.06;5015169;28;20116;-68
2022/01/09 09:42:55;;;;;;;14.68;2.17;;;;;;;-142.75;100.00;76914.78;5032728;28;20037;-68
2022/01/09 09:45:23;;;;;;;13.63;1.95;;;;;;;-142.75;100.00;76924.63;5032810;28;20502;-68
2022/01/09 09:47:50;;;;;;;14.47;2.30;;;;;;;-142.75;100.00;76904.94;5014726;28;20029;-68
2022/01/09 09:50:16;;;;;;;13.40;2.33;;;;;;;-142.75;100.00;76887.22;5032717;28;20101;-68
2022/01/09 09:52:42;;;;;;;20.93;2.37;;;;;;;-142.75;100.00;76891.16;5032706;28;20112;-68
2022/01/09 09:55:08;;;;;;;;;;;;;;;-142.75;100.00;76881.31;5033392;28;20029;-68
2022/01/09 09:57:34;;;;;;;15.93;3.07;;;;;;;-142.75;100.00;76887.22;5032308;28;19917;-69
2022/01/09 10:00:07;;;;;;;11.75;2.10;;;;;;;-142.75;100.00;76895.09;5032408;28;20025;-68
2022/01/09 10:03:02;;;;;;;11.33;1.90;;;;;;;-142.75;100.00;76881.31;5032499;28;20033;-68
2022/01/09 10:05:37;;;;;;;14.37;2.53;;;;;;;-142.75;100.00;76853.75;5002184;28;20091;-67
2022/01/09 10:08:11;;;;;;;18.10;2.37;;;;;;;-142.75;100.00;76826.19;5032131;28;20017;-68
2022/01/09 10:10:38;;;;;;;9.93;2.20;;;;;;;-142.75;100.00;76804.53;5032521;28;20036;-69
2022/01/09 10:13:11;;;;;;;15.83;3.73;;;;;;;-142.75;100.00;76810.44;5014442;28;20487;-68
2022/01/09 10:15:56;;;;;;;14.43;2.70;;;;;;;-142.75;100.00;76808.50;5032241;28;20029;-68
2022/01/09 10:18:42;;;;;;;13.53;2.27;;;;;;;-142.75;100.00;76788.81;5031880;28;20031;-68
2022/01/09 10:21:11;;;;;;;20.30;2.70;;;;;;;-142.75;100.00;76780.94;5032141;28;20487;-69
2022/01/09 10:24:03;;;;;;;15.50;2.83;;;;;;;-142.75;100.00;76761.25;5014316;28;20029;-68
2022/01/09 10:26:30;;;;;;;17.80;2.30;;;;;;;-142.75;100.00;76761.25;5031415;28;20039;-69
2022/01/09 10:28:55;;;;;;;17.93;3.13;;;;;;;-142.75;100.00;76751.41;5013644;28;20035;-67
2022/01/09 10:31:21;;;;;;;10.88;1.95;;;;;;;-142.75;100.00;76780.94;5031974;28;20029;-68
2022/01/09 10:34:18;;;;;;;18.73;2.13;;;;;;;-142.75;100.00;76816.34;5031924;28;20097;-69
2022/01/09 10:36:48;;;;;;;9.20;1.70;;;;;;;-142.75;100.00;76877.38;5002343;28;20099;-68
2022/01/09 10:39:30;;;;;;;10.07;1.73;;;;;;;-142.75;100.00;76881.31;5013844;28;20021;-69
2022/01/09 10:42:03;;;;;;;11.83;2.20;;;;;;;-142.75;100.00;76887.22;5031745;28;20021;-66
2022/01/09 10:44:32;;;;;;;7.87;1.40;;;;;;;-142.75;100.00;76895.09;5031181;28;20025;-69
2022/01/09 10:47:03;;;;;;;12.47;1.90;;;;;;;-142.75;100.00;76899.03;5031468;28;20430;-69
2022/01/09 10:49:43;;;;;;;13.23;1.97;;;;;;;-142.75;100.00;76889.19;5031260;28;20032;-69
2022/01/09 10:52:39;;;;;;;12.07;2.03;;;;;;;-142.75;100.00;76895.09;5031679;28;20026;-68
2022/01/09 10:55:08;;;;;;;15.70;2.40;;;;;;;-142.75;100.00;76895.09;5031555;28;20022;-68
2022/01/09 10:57:36;;;;;;;14.50;2.23;;;;;;;-142.75;100.00;76893.13;5031247;28;20021;-69
2022/01/09 11:00:19;;;;;;;12.47;2.27;;;;;;;-142.75;100.00;76893.13;5031172;28;20033;-69
2022/01/09 11:02:45;;;;;;;13.67;2.53;;;;;;;-142.75;100.00;76881.31;5031393;28;20152;-68
2022/01/09 11:05:10;;;;;;;15.85;2.15;;;;;;;-142.75;100.00;76873.44;5031332;28;20553;-68
2022/01/09 11:07:36;;;;;;;16.20;2.33;;;;;;;-142.75;100.00;76863.59;5031139;28;20021;-69